createdAt,value
2022-07-25T00:01:56.999Z,17.50
2022-07-25T00:04:25.163Z,17.50
2022-07-25T00:06:52.258Z,17.50
2022-07-25T00:09:19.430Z,17.40
2022-07-25T00:11:49.486Z,17.40
2022-07-25T00:14:21.382Z,17.40
2022-07-25T00:16:56.573Z,17.30
2022-07-25T00:19:28.720Z,17.40
2022-07-25T00:22:03.686Z,17.20
2022-07-25T00:24:37.772Z,17.30
2022-07-25T00:27:05.546Z,17.30
2022-07-25T00:29:32.683Z,17.20
2022-07-25T00:32:04.939Z,17.20
2022-07-25T00:34:32.466Z,17.20
2022-07-25T00:36:59.539Z,17.30
2022-07-25T00:39:26.787Z,17.20
2022-07-25T00:41:58.904Z,17.20
2022-07-25T00:44:30.283Z,17.20
2022-07-25T00:47:00.592Z,17.10
2022-07-25T00:49:29.014Z,17.10
2022-07-25T00:51:58.780Z,17.10
2022-07-25T00:54:26.461Z,17.00
2022-07-25T00:56:55.771Z,17.00
2022-07-25T00:59:25.424Z,17.00
2022-07-25T01:01:55.340Z,17.00
2022-07-25T01:04:32.412Z,16.90
2022-07-25T01:07:00.858Z,16.90
2022-07-25T01:09:30.691Z,16.90
2022-07-25T01:12:00.048Z,17.00
2022-07-25T01:14:32.405Z,16.90
2022-07-25T01:17:01.842Z,16.90
2022-07-25T01:19:31.736Z,16.90
2022-07-25T01:21:59.087Z,16.90
2022-07-25T01:24:33.766Z,16.90
2022-07-25T01:27:05.831Z,16.90
2022-07-25T01:29:36.107Z,16.90
2022-07-25T01:32:08.325Z,16.80
2022-07-25T01:34:40.151Z,16.80
2022-07-25T01:37:12.428Z,16.80
2022-07-25T01:39:39.489Z,16.80
2022-07-25T01:42:06.972Z,16.80
2022-07-25T01:44:36.602Z,16.80
2022-07-25T01:47:06.050Z,16.70
2022-07-25T01:49:40.974Z,16.70
2022-07-25T01:52:11.235Z,16.70
2022-07-25T01:54:44.156Z,16.70
2022-07-25T01:57:13.720Z,16.70
2022-07-25T01:59:43.614Z,16.70
2022-07-25T02:02:12.958Z,16.60
2022-07-25T02:04:42.265Z,16.60
2022-07-25T02:07:14.751Z,16.60
2022-07-25T02:09:44.028Z,16.60
2022-07-25T02:12:11.372Z,16.60
2022-07-25T02:14:40.922Z,16.60
2022-07-25T02:17:11.360Z,16.60
2022-07-25T02:19:38.797Z,16.60
2022-07-25T02:22:06.088Z,16.60
2022-07-25T02:24:37.130Z,16.60
2022-07-25T02:27:09.141Z,16.60
2022-07-25T02:29:38.402Z,16.60
2022-07-25T02:32:06.085Z,16.60
2022-07-25T02:34:40.221Z,16.60
2022-07-25T02:37:09.678Z,16.50
2022-07-25T02:39:41.485Z,16.50
2022-07-25T02:42:13.377Z,16.40
2022-07-25T02:44:40.443Z,16.40
2022-07-25T02:47:07.898Z,16.40
2022-07-25T02:49:37.538Z,16.50
2022-07-25T02:52:04.946Z,16.40
2022-07-25T02:54:34.451Z,16.40
2022-07-25T02:57:06.425Z,16.40
2022-07-25T02:59:33.512Z,16.40
2022-07-25T03:02:03.141Z,16.30
2022-07-25T03:04:33.571Z,16.40
2022-07-25T03:07:00.727Z,16.40
2022-07-25T03:09:30.534Z,16.40
2022-07-25T03:12:02.375Z,16.30
2022-07-25T03:14:29.819Z,16.40
2022-07-25T03:16:59.493Z,16.40
2022-07-25T03:19:26.749Z,16.40
2022-07-25T03:21:56.275Z,16.40
2022-07-25T03:24:28.027Z,16.40
2022-07-25T03:26:57.722Z,16.40
2022-07-25T03:29:26.929Z,16.40
2022-07-25T03:31:59.506Z,16.50
2022-07-25T03:34:29.341Z,16.50
2022-07-25T03:36:56.709Z,16.60
2022-07-25T03:39:24.703Z,16.70
2022-07-25T03:41:56.750Z,16.70
2022-07-25T03:44:25.468Z,16.80
2022-07-25T03:46:55.520Z,16.80
2022-07-25T03:49:22.839Z,16.90
2022-07-25T03:51:50.198Z,16.90
2022-07-25T03:54:19.650Z,17.00
2022-07-25T03:56:49.338Z,17.10
2022-07-25T03:59:18.838Z,17.20
2022-07-25T04:01:49.909Z,17.20
2022-07-25T04:04:22.065Z,17.20
2022-07-25T04:06:56.210Z,17.30
2022-07-25T04:09:28.110Z,17.40
2022-07-25T04:12:00.545Z,17.40
2022-07-25T04:14:37.495Z,17.50
2022-07-25T04:17:14.815Z,17.60
2022-07-25T04:19:44.259Z,17.70
2022-07-25T04:22:19.417Z,17.80
2022-07-25T04:24:46.711Z,17.90
2022-07-25T04:27:14.289Z,18.00
2022-07-25T04:29:46.105Z,18.00
2022-07-25T04:32:14.823Z,18.10
2022-07-25T04:34:48.080Z,18.20
2022-07-25T04:37:17.986Z,18.30
2022-07-25T04:39:47.207Z,18.30
2022-07-25T04:42:14.318Z,18.30
2022-07-25T04:44:41.699Z,18.50
2022-07-25T04:47:12.975Z,18.50
2022-07-25T04:49:44.810Z,18.60
2022-07-25T04:52:16.926Z,18.70
2022-07-25T04:54:48.890Z,18.80
2022-07-25T04:57:20.978Z,18.80
2022-07-25T04:59:48.246Z,18.90
2022-07-25T05:02:15.365Z,19.00
2022-07-25T05:04:52.098Z,19.00
2022-07-25T05:07:21.975Z,19.10
2022-07-25T05:09:55.951Z,19.20
2022-07-25T05:12:28.326Z,19.20
2022-07-25T05:14:55.443Z,19.40
2022-07-25T05:17:25.014Z,19.40
2022-07-25T05:19:55.245Z,19.40
2022-07-25T05:22:28.562Z,19.50
2022-07-25T05:24:56.597Z,19.50
2022-07-25T05:27:23.799Z,19.70
2022-07-25T05:29:50.973Z,19.70
2022-07-25T05:32:20.746Z,19.80
2022-07-25T05:34:52.850Z,19.80
2022-07-25T05:37:27.221Z,19.90
2022-07-25T05:39:56.618Z,19.90
2022-07-25T05:42:32.721Z,20.00
2022-07-25T05:45:02.445Z,20.10
2022-07-25T05:47:32.125Z,20.20
2022-07-25T05:50:01.839Z,20.30
2022-07-25T05:52:31.483Z,20.30
2022-07-25T05:54:58.672Z,20.40
2022-07-25T05:57:25.950Z,20.50
2022-07-25T05:59:53.002Z,20.60
2022-07-25T06:02:22.589Z,20.70
2022-07-25T06:04:50.330Z,20.70
2022-07-25T06:07:17.389Z,20.80
2022-07-25T06:09:44.692Z,20.90
2022-07-25T06:12:14.281Z,21.00
2022-07-25T06:14:43.739Z,21.00
2022-07-25T06:17:15.679Z,21.10
2022-07-25T06:19:42.774Z,21.20
2022-07-25T06:22:13.783Z,21.20
2022-07-25T06:24:46.532Z,21.30
2022-07-25T06:27:18.479Z,21.40
2022-07-25T06:29:50.756Z,21.40
2022-07-25T06:32:20.419Z,21.50
2022-07-25T06:34:47.964Z,21.60
2022-07-25T06:37:19.841Z,21.70
2022-07-25T06:39:49.610Z,21.70
2022-07-25T06:42:19.030Z,21.80
2022-07-25T06:44:52.635Z,21.90
2022-07-25T06:47:24.143Z,22.00
2022-07-25T06:49:54.487Z,22.00
2022-07-25T06:52:23.971Z,22.10
2022-07-25T06:54:51.089Z,22.10
2022-07-25T06:57:23.565Z,22.20
2022-07-25T06:59:55.254Z,22.20
2022-07-25T07:02:29.850Z,22.30
2022-07-25T07:04:59.255Z,22.40
2022-07-25T07:07:31.690Z,22.50
2022-07-25T07:10:01.290Z,22.50
2022-07-25T07:12:30.522Z,22.50
2022-07-25T07:15:00.231Z,22.60
2022-07-25T07:17:29.751Z,22.60
2022-07-25T07:19:56.843Z,22.70
2022-07-25T07:22:26.576Z,22.70
2022-07-25T07:24:53.745Z,22.80
2022-07-25T07:27:24.425Z,22.90
2022-07-25T07:29:51.714Z,23.00
2022-07-25T07:32:21.926Z,23.10
2022-07-25T07:34:51.346Z,23.10
2022-07-25T07:37:20.870Z,23.10
2022-07-25T07:39:50.234Z,23.10
2022-07-25T07:42:22.020Z,23.10
2022-07-25T07:44:51.847Z,23.10
2022-07-25T07:47:21.685Z,23.10
2022-07-25T07:49:51.669Z,23.10
2022-07-25T07:52:21.216Z,23.10
2022-07-25T07:55:06.661Z,23.20
2022-07-25T07:57:38.750Z,23.20
2022-07-25T08:00:10.581Z,23.20
2022-07-25T08:02:51.646Z,23.30
2022-07-25T08:05:26.239Z,23.40
2022-07-25T08:07:56.384Z,23.40
2022-07-25T08:10:32.306Z,23.40
2022-07-25T08:13:11.482Z,23.50
2022-07-25T08:15:41.028Z,23.50
2022-07-25T08:18:17.196Z,23.60
2022-07-25T08:20:52.010Z,23.60
2022-07-25T08:23:19.937Z,23.70
2022-07-25T08:25:54.248Z,23.80
2022-07-25T08:28:24.556Z,23.90
2022-07-25T08:30:52.233Z,24.00
2022-07-25T08:33:24.575Z,24.10
2022-07-25T08:35:55.747Z,24.20
2022-07-25T08:38:29.428Z,24.20
2022-07-25T08:40:59.978Z,24.30
2022-07-25T08:43:31.227Z,24.40
2022-07-25T08:46:02.134Z,24.40
2022-07-25T08:48:29.823Z,24.50
2022-07-25T08:50:59.828Z,24.50
2022-07-25T08:53:33.650Z,24.50
2022-07-25T08:56:16.042Z,24.50
2022-07-25T08:58:49.610Z,24.50
2022-07-25T09:01:19.198Z,24.60
2022-07-25T09:03:46.416Z,24.60
2022-07-25T09:08:58.655Z,25.10
2022-07-25T09:11:36.852Z,24.90
2022-07-25T09:14:09.724Z,24.90
2022-07-25T09:16:44.328Z,24.90
2022-07-25T09:19:18.811Z,25.00
2022-07-25T09:22:01.460Z,25.00
2022-07-25T09:24:32.551Z,25.10
2022-07-25T09:27:14.825Z,25.00
2022-07-25T09:29:46.578Z,24.90
2022-07-25T09:32:25.345Z,24.90
2022-07-25T09:34:52.758Z,24.90
2022-07-25T09:37:27.842Z,25.00
2022-07-25T09:39:55.084Z,25.00
2022-07-25T09:42:36.409Z,25.10
2022-07-25T09:45:15.235Z,25.20
2022-07-25T09:47:57.846Z,25.30
2022-07-25T09:50:29.203Z,25.30
2022-07-25T09:53:02.452Z,25.30
2022-07-25T09:55:32.877Z,25.40
2022-07-25T09:58:07.160Z,25.40
2022-07-25T10:00:34.663Z,25.50
2022-07-25T10:03:15.824Z,25.50
2022-07-25T10:06:07.440Z,25.50
2022-07-25T10:08:41.542Z,25.60
2022-07-25T10:11:27.035Z,25.60
2022-07-25T10:13:56.452Z,25.70
2022-07-25T10:16:25.756Z,25.70
2022-07-25T10:18:56.158Z,25.60
2022-07-25T10:21:27.301Z,25.70
2022-07-25T10:24:07.891Z,25.70
2022-07-25T10:26:38.591Z,25.70
2022-07-25T10:29:15.976Z,25.80
2022-07-25T10:31:50.599Z,25.80
2022-07-25T10:34:33.171Z,25.90
2022-07-25T10:37:15.553Z,26.00
2022-07-25T10:39:44.786Z,26.00
2022-07-25T10:42:36.664Z,26.00
2022-07-25T10:45:09.727Z,26.10
2022-07-25T10:47:40.060Z,26.10
2022-07-25T10:50:25.442Z,26.20
2022-07-25T10:53:00.601Z,26.20
2022-07-25T10:55:30.543Z,26.20
2022-07-25T10:58:21.837Z,26.20
2022-07-25T11:00:51.229Z,26.30
2022-07-25T11:03:20.277Z,26.30
2022-07-25T11:05:48.327Z,26.40
2022-07-25T11:08:22.092Z,26.40
2022-07-25T11:10:54.686Z,26.50
2022-07-25T11:13:24.507Z,26.50
2022-07-25T11:16:00.583Z,26.60
2022-07-25T11:18:49.484Z,26.60
2022-07-25T11:21:21.388Z,26.60
2022-07-25T11:23:53.226Z,26.60
2022-07-25T11:26:27.600Z,26.70
2022-07-25T11:28:54.991Z,26.60
2022-07-25T11:31:27.809Z,26.70
2022-07-25T11:33:57.559Z,26.70
2022-07-25T11:36:24.852Z,26.80
2022-07-25T11:38:55.088Z,26.80
2022-07-25T11:41:32.017Z,26.90
2022-07-25T11:44:04.133Z,27.00
2022-07-25T11:46:47.219Z,27.00
2022-07-25T11:49:15.243Z,27.00
2022-07-25T11:51:42.764Z,27.00
2022-07-25T11:54:13.663Z,27.10
2022-07-25T11:56:44.966Z,27.10
2022-07-25T11:59:14.673Z,27.10
2022-07-25T12:01:45.410Z,27.20
2022-07-25T12:04:20.820Z,27.30
2022-07-25T12:07:03.030Z,27.30
2022-07-25T12:09:32.841Z,27.30
2022-07-25T12:12:04.513Z,27.40
2022-07-25T12:14:43.539Z,27.30
2022-07-25T12:17:19.315Z,27.40
2022-07-25T12:19:47.485Z,27.40
2022-07-25T12:22:16.915Z,27.40
2022-07-25T12:24:49.494Z,27.40
2022-07-25T12:27:19.191Z,27.50
2022-07-25T12:29:48.811Z,27.50
2022-07-25T12:32:18.181Z,27.50
2022-07-25T12:34:47.976Z,27.60
2022-07-25T12:37:21.724Z,27.60
2022-07-25T12:39:49.344Z,27.70
2022-07-25T12:42:21.691Z,27.70
2022-07-25T12:44:57.794Z,27.80
2022-07-25T12:47:30.358Z,27.80
2022-07-25T12:49:57.764Z,27.80
2022-07-25T12:52:27.196Z,27.80
2022-07-25T12:54:54.335Z,27.90
2022-07-25T12:57:27.033Z,27.90
2022-07-25T12:59:54.207Z,27.90
2022-07-25T13:02:21.870Z,28.00
2022-07-25T13:04:49.265Z,28.00
2022-07-25T13:07:16.558Z,28.00
2022-07-25T13:09:50.860Z,27.70
2022-07-25T13:12:18.331Z,27.90
2022-07-25T13:14:52.685Z,27.90
2022-07-25T13:17:23.649Z,28.00
2022-07-25T13:22:23.833Z,31.60
2022-07-25T13:24:56.246Z,28.10
2022-07-25T13:27:25.959Z,28.10
2022-07-25T13:29:56.100Z,28.10
2022-07-25T13:32:26.727Z,28.20
2022-07-25T13:34:59.716Z,28.10
2022-07-25T13:37:31.580Z,28.10
2022-07-25T13:40:01.155Z,28.10
2022-07-25T13:42:30.985Z,28.10
2022-07-25T13:45:00.639Z,28.20
2022-07-25T13:47:35.585Z,28.20
2022-07-25T13:50:02.960Z,28.20
2022-07-25T13:52:30.346Z,28.20
2022-07-25T13:55:02.177Z,28.20
2022-07-25T13:57:34.351Z,28.20
2022-07-25T14:00:05.218Z,28.20
2022-07-25T14:02:35.023Z,28.20
2022-07-25T14:05:05.214Z,28.30
2022-07-25T14:07:34.563Z,28.30
2022-07-25T14:10:08.617Z,28.30
2022-07-25T14:12:37.346Z,28.30
2022-07-25T14:15:07.217Z,28.30
2022-07-25T14:17:38.834Z,28.30
2022-07-25T14:20:07.575Z,28.30
2022-07-25T14:22:38.438Z,28.30
2022-07-25T14:25:06.804Z,28.30
2022-07-25T14:27:37.825Z,28.30
2022-07-25T14:30:11.587Z,28.30
2022-07-25T14:32:47.013Z,28.30
2022-07-25T14:35:14.382Z,28.30
2022-07-25T14:37:41.929Z,28.40
2022-07-25T14:40:14.603Z,28.40
2022-07-25T14:42:42.216Z,28.40
2022-07-25T14:45:12.692Z,28.30
2022-07-25T14:47:42.334Z,28.30
2022-07-25T14:50:12.643Z,28.40
2022-07-25T14:52:44.675Z,28.40
2022-07-25T14:55:14.575Z,28.40
2022-07-25T14:57:45.316Z,28.40
2022-07-25T15:00:17.558Z,28.40
2022-07-25T15:02:46.791Z,28.50
2022-07-25T15:38:02.973Z,28.50
2022-07-25T15:42:59.838Z,28.70
2022-07-25T15:45:34.219Z,28.80
2022-07-25T15:48:03.051Z,28.80
2022-07-25T15:50:38.151Z,28.90
2022-07-25T15:53:07.953Z,28.90
2022-07-25T15:55:41.517Z,28.80
2022-07-25T15:58:13.822Z,28.80
2022-07-25T16:00:45.586Z,28.80
2022-07-25T16:03:17.599Z,28.80
2022-07-25T16:05:47.202Z,28.90
2022-07-25T16:10:44.664Z,29.10
2022-07-25T16:33:12.613Z,34.20
2022-07-25T16:38:17.400Z,35.30
2022-07-25T16:40:44.949Z,33.20
2022-07-25T16:43:12.167Z,32.40
2022-07-25T16:45:46.796Z,31.90
2022-07-25T16:48:13.989Z,31.30
2022-07-25T16:50:43.499Z,30.80
2022-07-25T16:53:10.582Z,30.50
2022-07-25T16:55:38.435Z,30.20
2022-07-25T16:58:07.944Z,30.00
2022-07-25T17:00:35.167Z,29.80
2022-07-25T17:03:04.879Z,29.50
2022-07-25T17:05:35.390Z,29.40
2022-07-25T17:08:02.816Z,29.20
2022-07-25T17:10:30.131Z,29.10
2022-07-25T17:13:00.097Z,29.10
2022-07-25T17:15:29.684Z,29.10
2022-07-25T17:17:56.762Z,28.90
2022-07-25T17:20:26.068Z,28.80
2022-07-25T17:22:58.458Z,28.60
2022-07-25T17:25:25.743Z,28.50
2022-07-25T17:27:53.111Z,28.40
2022-07-25T17:30:25.050Z,28.30
2022-07-25T17:32:56.912Z,28.10
2022-07-25T17:35:32.134Z,28.00
2022-07-25T17:37:59.930Z,27.90
2022-07-25T17:40:34.431Z,27.70
2022-07-25T17:43:01.714Z,27.60
2022-07-25T17:45:31.185Z,27.40
2022-07-25T17:47:58.308Z,27.30
2022-07-25T17:50:29.358Z,27.20
2022-07-25T17:53:02.994Z,27.10
2022-07-25T17:55:36.846Z,27.00
2022-07-25T17:58:08.735Z,26.90
2022-07-25T18:00:38.366Z,26.80
2022-07-25T18:03:07.851Z,26.70
2022-07-25T18:05:39.907Z,26.60
2022-07-25T18:08:10.369Z,26.50
2022-07-25T18:10:37.471Z,26.30
2022-07-25T18:13:04.626Z,26.30
2022-07-25T18:15:36.463Z,26.20
2022-07-25T18:18:03.815Z,26.10
2022-07-25T18:20:31.274Z,26.00
2022-07-25T18:23:01.030Z,26.00
2022-07-25T18:25:28.167Z,25.80
2022-07-25T18:27:57.491Z,25.70
2022-07-25T18:30:32.876Z,25.60
2022-07-25T18:33:02.443Z,25.50
2022-07-25T18:35:29.899Z,25.40
2022-07-25T18:37:59.134Z,25.30
2022-07-25T18:40:33.978Z,25.30
2022-07-25T18:43:01.178Z,25.10
2022-07-25T18:45:37.148Z,25.10
2022-07-25T18:48:07.743Z,25.00
2022-07-25T18:50:38.066Z,24.90
2022-07-25T18:53:05.410Z,24.80
2022-07-25T18:55:32.720Z,24.70
2022-07-25T18:58:02.131Z,24.70
2022-07-25T19:00:31.630Z,24.60
2022-07-25T19:02:58.982Z,24.50
2022-07-25T19:05:26.346Z,24.40
2022-07-25T19:07:59.624Z,24.40
2022-07-25T19:10:26.766Z,24.30
2022-07-25T19:12:56.729Z,24.30
2022-07-25T19:15:28.091Z,24.20
2022-07-25T19:17:57.954Z,24.10
2022-07-25T19:20:25.286Z,24.10
2022-07-25T19:22:54.950Z,24.00
2022-07-25T19:25:24.875Z,23.90
2022-07-25T19:27:52.033Z,23.90
2022-07-25T19:30:21.497Z,23.80
2022-07-25T19:32:51.238Z,23.80
2022-07-25T19:35:26.291Z,23.70
2022-07-25T19:37:56.435Z,23.60
2022-07-25T19:40:23.678Z,23.60
2022-07-25T19:42:55.526Z,23.50
2022-07-25T19:45:25.184Z,23.50
2022-07-25T19:47:52.643Z,23.40
2022-07-25T19:50:22.587Z,23.40
2022-07-25T19:52:53.196Z,23.30
2022-07-25T19:55:22.759Z,23.30
2022-07-25T19:57:51.342Z,23.20
2022-07-25T20:00:23.769Z,23.10
2022-07-25T20:02:53.258Z,23.00
2022-07-25T20:05:20.646Z,23.00
2022-07-25T20:07:52.873Z,23.00
2022-07-25T20:10:20.146Z,23.00
2022-07-25T20:12:51.736Z,22.90
2022-07-25T20:15:23.974Z,22.80
2022-07-25T20:17:56.633Z,22.80
2022-07-25T20:20:29.278Z,22.70
2022-07-25T20:23:04.559Z,22.70
2022-07-25T20:25:32.147Z,22.70
2022-07-25T20:28:06.671Z,22.60
2022-07-25T20:30:36.467Z,22.50
2022-07-25T20:33:05.305Z,22.50
2022-07-25T20:35:43.821Z,22.50
2022-07-25T20:38:18.532Z,22.40
2022-07-25T20:40:49.554Z,22.40
2022-07-25T20:43:22.587Z,22.30
2022-07-25T20:45:52.253Z,22.30
2022-07-25T20:48:21.982Z,22.30
2022-07-25T20:50:51.734Z,22.30
2022-07-25T20:53:21.099Z,22.30
2022-07-25T20:55:51.007Z,22.30
2022-07-25T20:58:18.338Z,22.20
2022-07-25T21:00:50.545Z,22.20
2022-07-25T21:03:17.810Z,22.20
2022-07-25T21:05:45.186Z,22.10
2022-07-25T21:08:17.657Z,22.10
2022-07-25T21:10:45.066Z,22.10
2022-07-25T21:13:18.361Z,22.10
2022-07-25T21:15:47.998Z,22.10
2022-07-25T21:18:17.470Z,22.00
2022-07-25T21:20:50.107Z,22.00
2022-07-25T21:23:20.868Z,22.00
2022-07-25T21:25:50.216Z,22.00
2022-07-25T21:28:19.708Z,21.90
2022-07-25T21:30:47.061Z,21.90
2022-07-25T21:33:18.964Z,21.80
2022-07-25T21:35:51.982Z,21.80
2022-07-25T21:38:26.805Z,21.80
2022-07-25T21:41:02.676Z,21.70
2022-07-25T21:43:32.522Z,21.70
2022-07-25T21:45:59.873Z,21.70
2022-07-25T21:48:45.514Z,21.60
2022-07-25T21:51:22.837Z,21.60
2022-07-25T21:53:56.185Z,21.60
2022-07-25T21:56:26.162Z,21.60
2022-07-25T21:58:53.276Z,21.50
2022-07-25T22:01:23.207Z,21.50
2022-07-25T22:03:53.186Z,21.50
2022-07-25T22:06:20.328Z,21.40
2022-07-25T22:08:47.536Z,21.40
2022-07-25T22:11:38.359Z,21.40
2022-07-25T22:14:05.269Z,21.40
2022-07-25T22:16:37.773Z,21.30
2022-07-25T22:19:10.486Z,21.30
2022-07-25T22:21:41.278Z,21.30
2022-07-25T22:24:09.285Z,21.20
2022-07-25T22:26:38.710Z,21.20
2022-07-25T22:29:08.604Z,21.20
2022-07-25T22:31:38.749Z,21.20
2022-07-25T22:34:08.614Z,21.10
2022-07-25T22:36:35.839Z,21.10
2022-07-25T22:39:09.002Z,21.10
2022-07-25T22:41:39.311Z,21.10
2022-07-25T22:44:09.072Z,21.00
2022-07-25T22:46:38.419Z,21.00
2022-07-25T22:49:08.572Z,21.00
2022-07-25T22:51:38.231Z,21.00
2022-07-25T22:54:06.082Z,21.00
2022-07-25T22:56:35.931Z,20.90
2022-07-25T22:59:11.005Z,20.90
2022-07-25T23:01:43.433Z,20.90
2022-07-25T23:04:13.249Z,20.90
2022-07-25T23:06:42.935Z,20.90
2022-07-25T23:09:16.387Z,20.90
2022-07-25T23:11:48.521Z,20.90
2022-07-25T23:14:15.735Z,21.00
2022-07-25T23:16:43.032Z,20.90
2022-07-25T23:19:12.527Z,20.90
2022-07-25T23:21:41.881Z,20.90
2022-07-25T23:24:11.378Z,20.90
2022-07-25T23:26:44.461Z,20.90
2022-07-25T23:29:16.420Z,20.90
2022-07-25T23:31:48.457Z,20.80
2022-07-25T23:34:22.539Z,20.80
2022-07-25T23:36:57.050Z,20.80
2022-07-25T23:39:26.804Z,20.70
2022-07-25T23:41:54.415Z,20.70
2022-07-25T23:44:21.766Z,20.70
2022-07-25T23:46:53.687Z,20.70
2022-07-25T23:49:25.626Z,20.70
2022-07-25T23:51:57.160Z,20.70
2022-07-25T23:54:29.746Z,20.70
2022-07-25T23:56:57.115Z,20.60
2022-07-25T23:59:24.327Z,20.60
